TimeEST,TemperatureF,Dew PointF,Humidity,Sea Level PressureIn,VisibilityMPH,Wind Direction,Wind SpeedMPH,Gust SpeedMPH,PrecipitationIn,Events,Conditions,WindDirDegrees,DateUTC
12:53 AM,50.0,45.0,83,29.87,10.0,South,11.5,-,N/A,,Clear,190,2013-01-12 05:53:00
1:53 AM,48.9,44.1,83,29.88,10.0,South,11.5,-,N/A,,Clear,190,2013-01-12 06:53:00
3:53 AM,46.9,44.1,90,29.90,10.0,South,11.5,-,N/A,,Clear,190,2013-01-12 08:53:00
4:53 AM,48.9,45.0,86,29.89,10.0,SSW,11.5,-,N/A,,Clear,200,2013-01-12 09:53:00
5:53 AM,52.0,48.0,86,29.89,10.0,SSW,15.0,-,N/A,,Clear,210,2013-01-12 10:53:00
6:53 AM,53.1,48.9,86,29.90,10.0,SSW,15.0,-,N/A,,Clear,210,2013-01-12 11:53:00
7:53 AM,54.0,50.0,86,29.92,10.0,SSW,15.0,-,N/A,,Clear,210,2013-01-12 12:53:00
8:53 AM,52.0,48.9,89,29.96,10.0,SSW,10.4,-,N/A,,Clear,200,2013-01-12 13:53:00
9:53 AM,55.0,51.1,86,29.97,10.0,SSW,13.8,-,N/A,,Clear,210,2013-01-12 14:53:00
10:53 AM,55.9,52.0,87,29.98,10.0,SSW,9.2,-,N/A,,Clear,210,2013-01-12 15:53:00
11:53 AM,55.9,53.1,90,29.96,10.0,SSW,11.5,-,N/A,,Clear,200,2013-01-12 16:53:00
12:53 PM,59.0,53.1,81,29.94,10.0,SSW,11.5,-,N/A,,Clear,210,2013-01-12 17:53:00
1:53 PM,60.1,53.1,78,29.94,10.0,SW,12.7,-,N/A,,Clear,220,2013-01-12 18:53:00
2:53 PM,60.1,53.1,78,29.96,10.0,SW,13.8,-,N/A,,Partly Cloudy,220,2013-01-12 19:53:00
3:22 PM,60.8,53.6,77,29.97,10.0,SW,10.4,-,N/A,,Mostly Cloudy,220,2013-01-12 20:22:00
3:53 PM,61.0,53.1,75,29.96,10.0,SSW,9.2,-,N/A,,Mostly Cloudy,210,2013-01-12 20:53:00
4:05 PM,59.0,53.6,82,29.96,10.0,SSW,8.1,-,N/A,,Scattered Clouds,200,2013-01-12 21:05:00
4:53 PM,57.0,53.1,87,29.95,10.0,SSW,4.6,-,N/A,,Scattered Clouds,210,2013-01-12 21:53:00
5:53 PM,55.9,52.0,87,29.93,10.0,ESE,4.6,-,N/A,,Partly Cloudy,120,2013-01-12 22:53:00
6:53 PM,54.0,52.0,93,29.92,10.0,SE,5.8,-,N/A,,Partly Cloudy,130,2013-01-12 23:53:00
7:53 PM,55.0,52.0,89,29.89,10.0,ESE,4.6,-,N/A,,Partly Cloudy,110,2013-01-13 00:53:00
8:53 PM,54.0,52.0,93,29.87,7.0,East,4.6,-,N/A,,Overcast,90,2013-01-13 01:53:00
9:16 PM,53.6,51.8,94,29.87,6.0,East,5.8,-,0.00,Rain,Light Rain,100,2013-01-13 02:16:00
9:29 PM,53.6,51.8,94,29.85,6.0,East,4.6,-,0.00,Rain-Thunderstorm,Light Rain,80,2013-01-13 02:29:00
9:41 PM,53.6,53.6,100,29.86,3.0,East,3.5,-,0.03,Rain,Rain,80,2013-01-13 02:41:00
9:53 PM,54.0,52.0,93,29.84,3.0,East,3.5,-,0.04,Rain,Light Rain,90,2013-01-13 02:53:00
10:04 PM,53.6,53.6,100,29.84,2.0,East,3.5,-,0.05,Rain,Heavy Rain,90,2013-01-13 03:04:00
10:16 PM,53.6,53.6,100,29.84,1.5,SE,4.6,-,0.18,Rain,Heavy Rain,130,2013-01-13 03:16:00
10:33 PM,55.4,53.6,94,29.81,1.5,East,6.9,-,0.37,Rain,Heavy Rain,100,2013-01-13 03:33:00
10:49 PM,55.4,53.6,94,29.81,2.5,East,5.8,-,0.40,Rain,Light Rain,90,2013-01-13 03:49:00
10:53 PM,55.0,54.0,96,29.80,2.0,East,4.6,-,0.40,Rain,Light Rain,100,2013-01-13 03:53:00
11:14 PM,55.4,53.6,94,29.80,1.8,ESE,6.9,-,0.06,Rain,Rain,110,2013-01-13 04:14:00
11:22 PM,55.4,53.6,94,29.79,2.0,East,6.9,-,0.08,Rain,Light Rain,90,2013-01-13 04:22:00
11:31 PM,55.4,53.6,94,29.78,2.5,East,8.1,-,0.08,Rain,Light Rain,100,2013-01-13 04:31:00
11:53 PM,55.9,55.0,97,29.74,2.5,ESE,9.2,-,0.09,Rain,Light Rain,110,2013-01-13 04:53:00
11:56 PM,55.4,55.4,100,29.75,3.0,ESE,9.2,-,0.00,Rain,Light Rain,110,2013-01-13 04:56:00